Flight Track Log - Related Links

Times and Time Zones

All times are in EDT time to prevent confusion due to time zone crossing. See the FLG3752 flight status page for this flight to view local times or setup timezone preferences in your user account.

Time Position Orientation Groundspeed Altitude Reporting Facility
EDT Latitude Longitude Course Direction KTS MPH feet Rate Location/Type
Mon 07:27:43 PM 33.6494 -84.4656 320° Northwest 440 506 2,600  Level Atlanta Center
Mon 07:28:43 PM 33.6681 -84.5256 290° West 338 389 3,400 1,615 Climbing Atlanta Center
Mon 07:29:01 PM 33.6833 -84.5500 307° West 264 304 4,700 3,167 Climbing Atlanta TRACON
Mon 07:29:55 PM 33.7333 -84.5833 331° Northwest 278 320 7,200 2,333 Climbing Atlanta TRACON
Mon 07:30:00 PM 33.8927 -84.2260 320° Northwest  Level FlightAware Approximate
Mon 07:31:00 PM 33.9776 -84.3109 320° Northwest  Level FlightAware Approximate
Mon 07:31:43 PM 33.8786 -84.5842 360° North 306 352 11,000  Level Atlanta Center
Mon 07:32:00 PM 34.0625 -84.3958 320° Northwest  Level FlightAware Approximate
Mon 07:32:43 PM 33.9808 -84.5850 360° North 322 371 12,100  Level Atlanta Center
Mon 07:33:43 PM 34.0789 -84.5881 359° North 343 395 13,600 1,550 Climbing Atlanta Center
Mon 07:34:43 PM 34.1811 -84.5911 359° North 355 409 15,200 1,550 Climbing Atlanta Center
Mon 07:35:43 PM 34.2836 -84.5969 357° North 360 414 16,700 1,500 Climbing Atlanta Center
Mon 07:36:43 PM 34.3836 -84.6178 350° North 365 420 18,200 1,350 Climbing Atlanta Center
Mon 07:37:43 PM 34.4753 -84.6411 348° North 371 427 19,400 1,200 Climbing Atlanta Center
Mon 07:38:43 PM 34.5775 -84.6644 349° North 371 427 20,600 1,000 Climbing Atlanta Center
Mon 07:39:43 PM 34.6878 -84.6956 347° North 371 427 21,400 700 Climbing Atlanta Center
Mon 07:40:43 PM 34.7961 -84.7217 349° North 376 433 22,000 650 Climbing Atlanta Center
Mon 07:41:43 PM 34.9067 -84.7481 349° North 393 452 22,700 750 Climbing Atlanta Center
Mon 07:42:43 PM 35.0172 -84.7767 348° North 393 452 23,500 800 Climbing Atlanta Center
Mon 07:43:43 PM 35.1297 -84.8058 348° North 398 458 24,300 800 Climbing Atlanta Center
Mon 07:44:43 PM 35.2400 -84.8322 349° North 403 464 25,100 850 Climbing Atlanta Center
Mon 07:45:43 PM 35.3506 -84.8586 349° North 403 464 26,000 850 Climbing Atlanta Center
Mon 07:46:43 PM 35.4608 -84.8878 348° North 403 464 26,800 800 Climbing Atlanta Center
Mon 07:47:43 PM 35.5733 -84.9144 349° North 403 464 27,600 700 Climbing Atlanta Center
Mon 07:48:43 PM 35.6817 -84.9439 348° North 403 464 28,200 550 Climbing Atlanta Center
Mon 07:49:43 PM 35.7897 -84.9758 347° North 403 464 28,700 511 Climbing Atlanta Center
Mon 07:51:51 PM 36.0256 -85.0294 350° North 413 475 29,800 411 Climbing Indianapolis Center
Mon 07:52:53 PM 36.1386 -85.0581 348° North 413 475 30,000 98 Climbing Indianapolis Center
Mon 07:53:54 PM 36.2533 -85.0875 348° North 418 481 30,000  Level Indianapolis Center
Mon 07:54:56 PM 36.3711 -85.1183 348° North 430 495 30,000  Level Indianapolis Center
Mon 07:55:58 PM 36.4886 -85.1483 348° North 429 494 30,000  Level Indianapolis Center
Mon 07:56:59 PM 36.6294 -85.1853 348° North 432 497 30,000  Level Indianapolis Center
Mon 07:58:01 PM 36.7472 -85.2158 348° North 432 497 30,000  Level Indianapolis Center
Mon 07:59:03 PM 36.8656 -85.2472 348° North 434 499 30,000  Level Indianapolis Center
Mon 08:00:04 PM 36.9850 -85.2753 349° North 437 503 30,000  Level Indianapolis Center
Mon 08:01:06 PM 37.1136 -85.2714 North 440 506 30,000  Level Indianapolis Center
Mon 08:02:08 PM 37.2364 -85.2686 North 438 504 30,000  Level Indianapolis Center
Mon 08:03:09 PM 37.3603 -85.2667 North 442 509 30,000  Level Indianapolis Center
Mon 08:04:11 PM 37.4833 -85.2631 North 439 505 30,000  Level Indianapolis Center
Mon 08:05:12 PM 37.6064 -85.2622 360° North 440 506 30,000  Level Indianapolis Center
Mon 08:06:14 PM 37.7522 -85.2594 North 445 512 30,000  Level Indianapolis Center
Mon 08:07:16 PM 37.8756 -85.2553 North 450 518 30,000  Level Indianapolis Center
Mon 08:08:17 PM 38.0000 -85.2531 North 448 516 30,000  Level Indianapolis Center
Mon 08:09:19 PM 38.1239 -85.2508 North 445 512 30,000  Level Indianapolis Center
Mon 08:10:21 PM 38.2478 -85.2489 North 444 511 30,000  Level Indianapolis Center
Mon 08:11:23 PM 38.3722 -85.2461 North 447 514 30,000  Level Indianapolis Center
Mon 08:12:24 PM 38.4958 -85.2442 North 445 512 30,000  Level Indianapolis Center
Mon 08:13:26 PM 38.6422 -85.2406 North 442 509 30,000 -484 Level Indianapolis Center
Mon 08:14:28 PM 38.7675 -85.2381 North 448 516 29,000 -1,220 Descending Indianapolis Center
Mon 08:15:29 PM 38.8933 -85.2358 North 448 516 27,500 -1,415 Descending Indianapolis Center
Mon 08:16:31 PM 39.0175 -85.2339 North 445 512 26,100 -1,258 Descending Indianapolis Center
Mon 08:17:33 PM 39.1417 -85.2308 North 443 510 24,900 -1,366 Descending Indianapolis Center
Mon 08:18:34 PM 39.2639 -85.2289 North 440 506 23,300 -927 Descending Indianapolis Center
Mon 08:19:36 PM 39.3839 -85.2264 North 433 498 23,000 -145 Descending Indianapolis Center
Mon 08:20:38 PM 39.4953 -85.2242 North 407 468 23,000  Level Indianapolis Center
Mon 08:21:39 PM 39.6269 -85.2217 North 404 465 23,000  Level Indianapolis Center
Mon 08:22:41 PM 39.7419 -85.2192 North 409 471 23,000  Level Indianapolis Center
Mon 08:23:43 PM 39.8575 -85.2172 North 412 474 23,000 -341 Level Indianapolis Center
Mon 08:24:44 PM 39.9714 -85.2144 North 410 472 22,300 -1,220 Descending Indianapolis Center
Mon 08:25:46 PM 40.0797 -85.2122 North 390 449 20,500 -1,790 Descending Indianapolis Center
Mon 08:26:48 PM 40.1842 -85.2097 North 377 434 18,600 -2,195 Descending Indianapolis Center
Mon 08:27:49 PM 40.2833 -85.2083 North 360 414 16,000 -2,780 Descending Indianapolis Center
Mon 08:28:51 PM 40.3928 -85.2061 North 339 390 12,900 -2,468 Descending Indianapolis Center
Mon 08:29:53 PM 40.4822 -85.2044 North 326 375 10,900 -1,790 Descending Indianapolis Center
Mon 08:30:55 PM 40.5614 -85.2033 North 292 336 9,200 -1,463 Descending Indianapolis Center
Mon 08:31:56 PM 40.6358 -85.2019 North 271 312 7,900 -1,184 Descending Indianapolis Center
Mon 08:32:11 PM 40.6481 -85.1997 North 271 312 7,700 -1,169 Descending Chicago Center
Mon 08:33:13 PM 40.7264 -85.1992 360° North 265 305 6,400 -1,161 Descending Chicago Center
Mon 08:34:15 PM 40.7989 -85.1967 North 262 302 5,300 -1,016 Descending Chicago Center
Mon 08:35:17 PM 40.8717 -85.1897 North 262 302 4,300 -919 Descending Chicago Center
Mon 08:36:19 PM 40.9278 -85.1189 44° Northeast 239 275 3,400 -581 Descending Chicago Center
Mon 08:37:21 PM 40.9644 -85.0658 48° Northeast 217 250 3,100 -435 Descending Chicago Center
Mon 08:38:23 PM 41.0097 -85.0572 North 200 230 2,500 -581 Descending Chicago Center

Login

Don't have an account? Register now (free) for customized features, flight alerts, and more!